sensor_id;sensor_type;location;lat;lon;timestamp;P1;durP1;ratioP1;P2;durP2;ratioP2
52962;SDS011;38827;53.024;6.596;2024-03-06T00:02:03;16.77;;;9.75;;
52962;SDS011;38827;53.024;6.596;2024-03-06T00:04:29;17.38;;;9.65;;
52962;SDS011;38827;53.024;6.596;2024-03-06T00:06:55;16.23;;;9.90;;
52962;SDS011;38827;53.024;6.596;2024-03-06T00:09:22;18.25;;;10.55;;
52962;SDS011;38827;53.024;6.596;2024-03-06T00:11:48;17.30;;;10.25;;
52962;SDS011;38827;53.024;6.596;2024-03-06T00:14:20;19.02;;;10.18;;
52962;SDS011;38827;53.024;6.596;2024-03-06T00:16:49;25.10;;;10.60;;
52962;SDS011;38827;53.024;6.596;2024-03-06T00:19:19;17.00;;;10.88;;
52962;SDS011;38827;53.024;6.596;2024-03-06T00:21:45;18.75;;;9.95;;
52962;SDS011;38827;53.024;6.596;2024-03-06T00:24:11;18.58;;;9.88;;
52962;SDS011;38827;53.024;6.596;2024-03-06T00:26:40;17.83;;;10.20;;
52962;SDS011;38827;53.024;6.596;2024-03-06T00:29:06;17.08;;;9.52;;
52962;SDS011;38827;53.024;6.596;2024-03-06T00:31:32;16.70;;;10.00;;
52962;SDS011;38827;53.024;6.596;2024-03-06T00:33:57;17.00;;;9.68;;
52962;SDS011;38827;53.024;6.596;2024-03-06T00:36:23;17.58;;;10.35;;
52962;SDS011;38827;53.024;6.596;2024-03-06T00:38:49;18.25;;;10.02;;
52962;SDS011;38827;53.024;6.596;2024-03-06T00:41:15;16.67;;;9.68;;
52962;SDS011;38827;53.024;6.596;2024-03-06T00:43:40;16.90;;;9.95;;
52962;SDS011;38827;53.024;6.596;2024-03-06T00:46:06;18.05;;;9.90;;
52962;SDS011;38827;53.024;6.596;2024-03-06T00:48:31;16.02;;;9.45;;
52962;SDS011;38827;53.024;6.596;2024-03-06T00:50:58;16.88;;;9.77;;
52962;SDS011;38827;53.024;6.596;2024-03-06T00:53:23;16.27;;;8.90;;
52962;SDS011;38827;53.024;6.596;2024-03-06T00:55:49;16.08;;;9.40;;
52962;SDS011;38827;53.024;6.596;2024-03-06T00:58:15;14.43;;;9.10;;
52962;SDS011;38827;53.024;6.596;2024-03-06T01:00:40;21.15;;;9.65;;
52962;SDS011;38827;53.024;6.596;2024-03-06T01:03:06;15.48;;;9.75;;
52962;SDS011;38827;53.024;6.596;2024-03-06T01:05:32;14.13;;;9.60;;
52962;SDS011;38827;53.024;6.596;2024-03-06T01:07:59;18.88;;;9.00;;
52962;SDS011;38827;53.024;6.596;2024-03-06T01:10:25;16.10;;;9.52;;
52962;SDS011;38827;53.024;6.596;2024-03-06T01:12:52;14.57;;;8.77;;
52962;SDS011;38827;53.024;6.596;2024-03-06T01:15:21;18.65;;;9.85;;
52962;SDS011;38827;53.024;6.596;2024-03-06T01:17:46;15.05;;;9.20;;
52962;SDS011;38827;53.024;6.596;2024-03-06T01:20:12;18.88;;;10.15;;
52962;SDS011;38827;53.024;6.596;2024-03-06T01:22:38;15.90;;;9.98;;
52962;SDS011;38827;53.024;6.596;2024-03-06T01:25:03;17.30;;;9.38;;
52962;SDS011;38827;53.024;6.596;2024-03-06T01:27:29;16.87;;;9.30;;
52962;SDS011;38827;53.024;6.596;2024-03-06T01:29:55;13.40;;;9.05;;
52962;SDS011;38827;53.024;6.596;2024-03-06T01:32:21;16.50;;;8.93;;
52962;SDS011;38827;53.024;6.596;2024-03-06T01:34:46;13.77;;;9.15;;
52962;SDS011;38827;53.024;6.596;2024-03-06T01:37:15;13.93;;;8.98;;
52962;SDS011;38827;53.024;6.596;2024-03-06T01:39:41;15.73;;;9.07;;
52962;SDS011;38827;53.024;6.596;2024-03-06T01:42:06;18.48;;;9.38;;
52962;SDS011;38827;53.024;6.596;2024-03-06T01:44:32;13.43;;;9.48;;
52962;SDS011;38827;53.024;6.596;2024-03-06T01:46:58;15.77;;;9.70;;
52962;SDS011;38827;53.024;6.596;2024-03-06T01:49:23;14.20;;;8.55;;
52962;SDS011;38827;53.024;6.596;2024-03-06T01:51:53;16.48;;;9.30;;
52962;SDS011;38827;53.024;6.596;2024-03-06T01:54:21;19.77;;;9.63;;
52962;SDS011;38827;53.024;6.596;2024-03-06T01:56:47;17.88;;;8.65;;
52962;SDS011;38827;53.024;6.596;2024-03-06T01:59:18;15.68;;;8.80;;
52962;SDS011;38827;53.024;6.596;2024-03-06T02:01:46;14.48;;;9.48;;
52962;SDS011;38827;53.024;6.596;2024-03-06T02:04:12;17.02;;;9.27;;
52962;SDS011;38827;53.024;6.596;2024-03-06T02:06:38;16.73;;;9.35;;
52962;SDS011;38827;53.024;6.596;2024-03-06T02:09:05;15.85;;;9.43;;
52962;SDS011;38827;53.024;6.596;2024-03-06T02:13:58;14.65;;;9.25;;
52962;SDS011;38827;53.024;6.596;2024-03-06T02:16:23;15.65;;;9.25;;
52962;SDS011;38827;53.024;6.596;2024-03-06T02:18:53;14.45;;;8.95;;
52962;SDS011;38827;53.024;6.596;2024-03-06T02:21:20;15.95;;;9.75;;
52962;SDS011;38827;53.024;6.596;2024-03-06T02:23:47;17.30;;;9.70;;
52962;SDS011;38827;53.024;6.596;2024-03-06T02:26:12;15.73;;;9.40;;
52962;SDS011;38827;53.024;6.596;2024-03-06T02:28:38;15.40;;;9.05;;
52962;SDS011;38827;53.024;6.596;2024-03-06T02:31:19;16.48;;;9.25;;
52962;SDS011;38827;53.024;6.596;2024-03-06T02:33:46;17.25;;;9.27;;
52962;SDS011;38827;53.024;6.596;2024-03-06T02:38:39;18.38;;;10.25;;
52962;SDS011;38827;53.024;6.596;2024-03-06T02:41:05;14.73;;;8.98;;
52962;SDS011;38827;53.024;6.596;2024-03-06T02:43:32;19.38;;;9.25;;
52962;SDS011;38827;53.024;6.596;2024-03-06T02:46:01;15.68;;;9.07;;
52962;SDS011;38827;53.024;6.596;2024-03-06T02:48:26;15.50;;;8.85;;
52962;SDS011;38827;53.024;6.596;2024-03-06T02:50:52;15.70;;;9.95;;
52962;SDS011;38827;53.024;6.596;2024-03-06T02:53:18;16.63;;;9.90;;
52962;SDS011;38827;53.024;6.596;2024-03-06T02:55:43;18.08;;;9.50;;
52962;SDS011;38827;53.024;6.596;2024-03-06T02:58:09;17.10;;;10.35;;
52962;SDS011;38827;53.024;6.596;2024-03-06T03:00:35;15.63;;;10.02;;
52962;SDS011;38827;53.024;6.596;2024-03-06T03:03:01;17.13;;;9.88;;
52962;SDS011;38827;53.024;6.596;2024-03-06T03:05:27;16.50;;;9.93;;
52962;SDS011;38827;53.024;6.596;2024-03-06T03:07:52;14.88;;;9.57;;
52962;SDS011;38827;53.024;6.596;2024-03-06T03:10:18;16.98;;;10.20;;
52962;SDS011;38827;53.024;6.596;2024-03-06T03:12:43;18.45;;;10.25;;
52962;SDS011;38827;53.024;6.596;2024-03-06T03:15:09;16.30;;;9.65;;
52962;SDS011;38827;53.024;6.596;2024-03-06T03:17:35;14.27;;;9.75;;
52962;SDS011;38827;53.024;6.596;2024-03-06T03:20:01;16.00;;;9.75;;
52962;SDS011;38827;53.024;6.596;2024-03-06T03:22:41;16.45;;;9.73;;
52962;SDS011;38827;53.024;6.596;2024-03-06T03:25:07;18.58;;;9.88;;
52962;SDS011;38827;53.024;6.596;2024-03-06T03:27:37;17.42;;;10.40;;
52962;SDS011;38827;53.024;6.596;2024-03-06T03:30:06;15.73;;;9.82;;
52962;SDS011;38827;53.024;6.596;2024-03-06T03:32:33;17.85;;;10.32;;
52962;SDS011;38827;53.024;6.596;2024-03-06T03:34:59;16.92;;;9.80;;
52962;SDS011;38827;53.024;6.596;2024-03-06T03:37:25;15.23;;;9.70;;
52962;SDS011;38827;53.024;6.596;2024-03-06T03:39:51;18.80;;;9.77;;
52962;SDS011;38827;53.024;6.596;2024-03-06T03:42:19;14.27;;;9.48;;
52962;SDS011;38827;53.024;6.596;2024-03-06T03:44:45;16.25;;;10.20;;
52962;SDS011;38827;53.024;6.596;2024-03-06T03:47:10;23.30;;;10.38;;
52962;SDS011;38827;53.024;6.596;2024-03-06T03:49:37;15.90;;;9.95;;
52962;SDS011;38827;53.024;6.596;2024-03-06T03:52:03;16.02;;;9.68;;
52962;SDS011;38827;53.024;6.596;2024-03-06T03:54:29;17.80;;;10.65;;
52962;SDS011;38827;53.024;6.596;2024-03-06T03:56:54;20.58;;;10.80;;
52962;SDS011;38827;53.024;6.596;2024-03-06T03:59:20;18.83;;;10.45;;
52962;SDS011;38827;53.024;6.596;2024-03-06T04:01:46;17.10;;;9.82;;
52962;SDS011;38827;53.024;6.596;2024-03-06T04:04:15;15.82;;;10.48;;
52962;SDS011;38827;53.024;6.596;2024-03-06T04:06:41;17.50;;;11.00;;
52962;SDS011;38827;53.024;6.596;2024-03-06T04:09:06;17.73;;;10.85;;
52962;SDS011;38827;53.024;6.596;2024-03-06T04:11:35;19.58;;;11.20;;
52962;SDS011;38827;53.024;6.596;2024-03-06T04:14:02;18.80;;;10.73;;
52962;SDS011;38827;53.024;6.596;2024-03-06T04:16:31;18.00;;;10.90;;
52962;SDS011;38827;53.024;6.596;2024-03-06T04:18:57;19.63;;;12.03;;
52962;SDS011;38827;53.024;6.596;2024-03-06T04:21:23;16.70;;;10.80;;
52962;SDS011;38827;53.024;6.596;2024-03-06T04:23:49;22.08;;;11.57;;
52962;SDS011;38827;53.024;6.596;2024-03-06T04:26:14;18.50;;;11.32;;
52962;SDS011;38827;53.024;6.596;2024-03-06T04:31:07;17.70;;;11.03;;
52962;SDS011;38827;53.024;6.596;2024-03-06T04:33:33;21.45;;;11.95;;
52962;SDS011;38827;53.024;6.596;2024-03-06T04:36:00;19.77;;;11.43;;
52962;SDS011;38827;53.024;6.596;2024-03-06T04:38:33;17.92;;;11.02;;
52962;SDS011;38827;53.024;6.596;2024-03-06T04:40:59;18.75;;;11.05;;
52962;SDS011;38827;53.024;6.596;2024-03-06T04:43:25;16.80;;;11.43;;
52962;SDS011;38827;53.024;6.596;2024-03-06T04:45:50;17.83;;;11.07;;
52962;SDS011;38827;53.024;6.596;2024-03-06T04:48:16;22.30;;;11.60;;
52962;SDS011;38827;53.024;6.596;2024-03-06T04:50:42;19.52;;;11.55;;
52962;SDS011;38827;53.024;6.596;2024-03-06T04:53:07;15.23;;;11.40;;
52962;SDS011;38827;53.024;6.596;2024-03-06T04:55:33;17.05;;;11.43;;
52962;SDS011;38827;53.024;6.596;2024-03-06T04:58:02;17.25;;;11.60;;
52962;SDS011;38827;53.024;6.596;2024-03-06T05:00:30;18.75;;;11.65;;
52962;SDS011;38827;53.024;6.596;2024-03-06T05:02:56;19.08;;;12.05;;
52962;SDS011;38827;53.024;6.596;2024-03-06T05:05:21;18.75;;;12.13;;
52962;SDS011;38827;53.024;6.596;2024-03-06T05:07:51;17.02;;;11.57;;
52962;SDS011;38827;53.024;6.596;2024-03-06T05:10:17;17.23;;;10.73;;
52962;SDS011;38827;53.024;6.596;2024-03-06T05:12:43;24.05;;;12.43;;
52962;SDS011;38827;53.024;6.596;2024-03-06T05:15:09;22.25;;;12.55;;
52962;SDS011;38827;53.024;6.596;2024-03-06T05:17:35;19.67;;;11.88;;
52962;SDS011;38827;53.024;6.596;2024-03-06T05:20:01;17.30;;;11.60;;
52962;SDS011;38827;53.024;6.596;2024-03-06T05:22:28;18.67;;;12.55;;
52962;SDS011;38827;53.024;6.596;2024-03-06T05:24:54;17.73;;;11.45;;
52962;SDS011;38827;53.024;6.596;2024-03-06T05:27:20;18.55;;;12.18;;
52962;SDS011;38827;53.024;6.596;2024-03-06T05:29:46;19.08;;;11.50;;
52962;SDS011;38827;53.024;6.596;2024-03-06T05:32:12;20.67;;;12.52;;
52962;SDS011;38827;53.024;6.596;2024-03-06T05:34:38;20.70;;;12.18;;
52962;SDS011;38827;53.024;6.596;2024-03-06T05:37:03;21.25;;;12.75;;
52962;SDS011;38827;53.024;6.596;2024-03-06T05:39:30;19.42;;;12.48;;
52962;SDS011;38827;53.024;6.596;2024-03-06T05:42:00;21.02;;;13.02;;
52962;SDS011;38827;53.024;6.596;2024-03-06T05:44:32;19.15;;;12.00;;
52962;SDS011;38827;53.024;6.596;2024-03-06T05:46:59;19.40;;;12.50;;
52962;SDS011;38827;53.024;6.596;2024-03-06T05:49:28;17.98;;;12.75;;
52962;SDS011;38827;53.024;6.596;2024-03-06T05:51:55;19.33;;;13.43;;
52962;SDS011;38827;53.024;6.596;2024-03-06T05:54:33;23.10;;;12.97;;
52962;SDS011;38827;53.024;6.596;2024-03-06T05:57:12;18.17;;;12.52;;
52962;SDS011;38827;53.024;6.596;2024-03-06T05:59:38;20.15;;;12.95;;
52962;SDS011;38827;53.024;6.596;2024-03-06T06:02:05;18.98;;;12.60;;
52962;SDS011;38827;53.024;6.596;2024-03-06T06:04:31;20.75;;;12.25;;
52962;SDS011;38827;53.024;6.596;2024-03-06T06:06:56;19.27;;;12.80;;
52962;SDS011;38827;53.024;6.596;2024-03-06T06:09:22;20.13;;;12.48;;
52962;SDS011;38827;53.024;6.596;2024-03-06T06:11:48;19.80;;;12.75;;
52962;SDS011;38827;53.024;6.596;2024-03-06T06:14:15;21.15;;;13.05;;
52962;SDS011;38827;53.024;6.596;2024-03-06T06:16:41;24.85;;;13.10;;
52962;SDS011;38827;53.024;6.596;2024-03-06T06:19:07;20.65;;;12.45;;
52962;SDS011;38827;53.024;6.596;2024-03-06T06:21:33;23.70;;;13.32;;
52962;SDS011;38827;53.024;6.596;2024-03-06T06:24:01;19.98;;;13.00;;
52962;SDS011;38827;53.024;6.596;2024-03-06T06:26:38;20.27;;;12.55;;
52962;SDS011;38827;53.024;6.596;2024-03-06T06:29:04;23.35;;;12.75;;
52962;SDS011;38827;53.024;6.596;2024-03-06T06:31:30;17.77;;;12.40;;
52962;SDS011;38827;53.024;6.596;2024-03-06T06:33:56;19.02;;;12.55;;
52962;SDS011;38827;53.024;6.596;2024-03-06T06:36:25;18.48;;;12.35;;
52962;SDS011;38827;53.024;6.596;2024-03-06T06:38:51;20.20;;;12.88;;
52962;SDS011;38827;53.024;6.596;2024-03-06T06:41:17;21.65;;;12.75;;
52962;SDS011;38827;53.024;6.596;2024-03-06T06:43:44;21.33;;;12.70;;
52962;SDS011;38827;53.024;6.596;2024-03-06T06:46:14;20.13;;;12.93;;
52962;SDS011;38827;53.024;6.596;2024-03-06T06:57:50;18.27;;;12.35;;
52962;SDS011;38827;53.024;6.596;2024-03-06T07:00:16;21.27;;;12.55;;
52962;SDS011;38827;53.024;6.596;2024-03-06T07:02:44;22.70;;;13.18;;
52962;SDS011;38827;53.024;6.596;2024-03-06T07:05:10;19.23;;;12.10;;
52962;SDS011;38827;53.024;6.596;2024-03-06T07:07:36;20.75;;;12.93;;
52962;SDS011;38827;53.024;6.596;2024-03-06T07:10:03;20.27;;;13.00;;
52962;SDS011;38827;53.024;6.596;2024-03-06T07:12:29;17.40;;;12.77;;
52962;SDS011;38827;53.024;6.596;2024-03-06T07:15:01;21.20;;;12.82;;
52962;SDS011;38827;53.024;6.596;2024-03-06T07:17:40;18.35;;;11.93;;
52962;SDS011;38827;53.024;6.596;2024-03-06T07:20:05;17.80;;;12.48;;
52962;SDS011;38827;53.024;6.596;2024-03-06T07:22:33;22.90;;;12.85;;
52962;SDS011;38827;53.024;6.596;2024-03-06T07:24:59;19.55;;;12.15;;
52962;SDS011;38827;53.024;6.596;2024-03-06T07:27:36;20.40;;;12.57;;
52962;SDS011;38827;53.024;6.596;2024-03-06T07:30:02;17.60;;;11.93;;
52962;SDS011;38827;53.024;6.596;2024-03-06T07:32:28;22.50;;;13.05;;
52962;SDS011;38827;53.024;6.596;2024-03-06T07:34:54;17.13;;;12.02;;
52962;SDS011;38827;53.024;6.596;2024-03-06T07:37:24;21.10;;;13.40;;
52962;SDS011;38827;53.024;6.596;2024-03-06T07:39:50;18.77;;;11.95;;
52962;SDS011;38827;53.024;6.596;2024-03-06T07:42:16;20.38;;;12.63;;
52962;SDS011;38827;53.024;6.596;2024-03-06T07:44:49;21.50;;;12.73;;
52962;SDS011;38827;53.024;6.596;2024-03-06T07:47:25;21.25;;;13.25;;
52962;SDS011;38827;53.024;6.596;2024-03-06T07:49:53;22.38;;;13.32;;
52962;SDS011;38827;53.024;6.596;2024-03-06T07:52:31;18.65;;;12.63;;
52962;SDS011;38827;53.024;6.596;2024-03-06T07:54:57;21.92;;;12.80;;
52962;SDS011;38827;53.024;6.596;2024-03-06T07:57:23;22.73;;;12.63;;
52962;SDS011;38827;53.024;6.596;2024-03-06T08:02:26;18.73;;;12.18;;
52962;SDS011;38827;53.024;6.596;2024-03-06T08:04:53;20.85;;;13.27;;
52962;SDS011;38827;53.024;6.596;2024-03-06T08:07:22;23.67;;;12.77;;
52962;SDS011;38827;53.024;6.596;2024-03-06T08:10:06;21.27;;;13.43;;
52962;SDS011;38827;53.024;6.596;2024-03-06T08:12:33;20.05;;;13.20;;
52962;SDS011;38827;53.024;6.596;2024-03-06T08:15:12;22.45;;;13.02;;
52962;SDS011;38827;53.024;6.596;2024-03-06T08:17:44;20.27;;;12.57;;
52962;SDS011;38827;53.024;6.596;2024-03-06T08:20:13;19.95;;;12.10;;
52962;SDS011;38827;53.024;6.596;2024-03-06T08:22:41;20.92;;;13.57;;
52962;SDS011;38827;53.024;6.596;2024-03-06T08:25:14;22.10;;;12.65;;
52962;SDS011;38827;53.024;6.596;2024-03-06T08:28:07;22.88;;;13.65;;
52962;SDS011;38827;53.024;6.596;2024-03-06T08:30:37;20.90;;;12.93;;
52962;SDS011;38827;53.024;6.596;2024-03-06T08:33:03;20.92;;;12.93;;
52962;SDS011;38827;53.024;6.596;2024-03-06T08:35:29;20.45;;;13.30;;
52962;SDS011;38827;53.024;6.596;2024-03-06T08:38:01;17.85;;;11.98;;
52962;SDS011;38827;53.024;6.596;2024-03-06T08:40:27;20.52;;;13.13;;
52962;SDS011;38827;53.024;6.596;2024-03-06T08:46:03;20.08;;;13.77;;
52962;SDS011;38827;53.024;6.596;2024-03-06T08:48:32;23.77;;;12.98;;
52962;SDS011;38827;53.024;6.596;2024-03-06T08:51:00;24.90;;;14.18;;
52962;SDS011;38827;53.024;6.596;2024-03-06T08:53:31;20.42;;;12.20;;
52962;SDS011;38827;53.024;6.596;2024-03-06T08:55:56;20.35;;;13.57;;
52962;SDS011;38827;53.024;6.596;2024-03-06T08:58:24;19.77;;;13.77;;
52962;SDS011;38827;53.024;6.596;2024-03-06T09:00:56;20.27;;;13.15;;
52962;SDS011;38827;53.024;6.596;2024-03-06T09:03:24;20.17;;;13.65;;
52962;SDS011;38827;53.024;6.596;2024-03-06T09:11:58;19.73;;;13.13;;
52962;SDS011;38827;53.024;6.596;2024-03-06T09:14:23;18.90;;;13.35;;
52962;SDS011;38827;53.024;6.596;2024-03-06T09:17:11;22.15;;;13.57;;
52962;SDS011;38827;53.024;6.596;2024-03-06T09:20:07;19.75;;;13.85;;
52962;SDS011;38827;53.024;6.596;2024-03-06T09:22:37;24.00;;;13.95;;
52962;SDS011;38827;53.024;6.596;2024-03-06T09:25:04;23.52;;;14.00;;
52962;SDS011;38827;53.024;6.596;2024-03-06T09:29:56;21.33;;;13.88;;
52962;SDS011;38827;53.024;6.596;2024-03-06T09:32:22;21.77;;;13.88;;
52962;SDS011;38827;53.024;6.596;2024-03-06T09:35:00;23.17;;;14.85;;
52962;SDS011;38827;53.024;6.596;2024-03-06T09:37:36;27.42;;;14.00;;
52962;SDS011;38827;53.024;6.596;2024-03-06T09:40:20;20.30;;;14.55;;
52962;SDS011;38827;53.024;6.596;2024-03-06T09:42:49;26.25;;;15.23;;
52962;SDS011;38827;53.024;6.596;2024-03-06T09:51:27;23.90;;;14.05;;
52962;SDS011;38827;53.024;6.596;2024-03-06T09:53:56;23.85;;;14.40;;
52962;SDS011;38827;53.024;6.596;2024-03-06T09:56:26;24.77;;;14.40;;
52962;SDS011;38827;53.024;6.596;2024-03-06T09:58:58;23.58;;;14.73;;
52962;SDS011;38827;53.024;6.596;2024-03-06T10:01:31;23.48;;;14.57;;
52962;SDS011;38827;53.024;6.596;2024-03-06T10:03:58;23.00;;;14.60;;
52962;SDS011;38827;53.024;6.596;2024-03-06T10:06:29;22.88;;;14.90;;
52962;SDS011;38827;53.024;6.596;2024-03-06T10:14:48;23.48;;;14.77;;
52962;SDS011;38827;53.024;6.596;2024-03-06T10:17:21;25.30;;;14.48;;
52962;SDS011;38827;53.024;6.596;2024-03-06T10:22:49;24.50;;;15.13;;
52962;SDS011;38827;53.024;6.596;2024-03-06T10:25:28;23.77;;;14.77;;
52962;SDS011;38827;53.024;6.596;2024-03-06T10:28:14;25.55;;;15.82;;
52962;SDS011;38827;53.024;6.596;2024-03-06T10:30:49;27.30;;;15.30;;
52962;SDS011;38827;53.024;6.596;2024-03-06T10:33:25;29.50;;;15.73;;
52962;SDS011;38827;53.024;6.596;2024-03-06T10:35:57;27.10;;;16.48;;
52962;SDS011;38827;53.024;6.596;2024-03-06T10:40:58;27.90;;;16.38;;
52962;SDS011;38827;53.024;6.596;2024-03-06T10:43:25;25.63;;;15.43;;
52962;SDS011;38827;53.024;6.596;2024-03-06T10:46:22;26.17;;;16.13;;
52962;SDS011;38827;53.024;6.596;2024-03-06T10:49:07;27.20;;;16.67;;
52962;SDS011;38827;53.024;6.596;2024-03-06T10:51:36;27.63;;;15.55;;
52962;SDS011;38827;53.024;6.596;2024-03-06T10:54:09;26.17;;;16.00;;
52962;SDS011;38827;53.024;6.596;2024-03-06T10:56:40;28.45;;;16.58;;
52962;SDS011;38827;53.024;6.596;2024-03-06T10:59:21;25.45;;;15.75;;
52962;SDS011;38827;53.024;6.596;2024-03-06T11:04:49;25.00;;;15.52;;
52962;SDS011;38827;53.024;6.596;2024-03-06T11:07:23;29.95;;;16.25;;
52962;SDS011;38827;53.024;6.596;2024-03-06T11:10:07;27.75;;;16.70;;
52962;SDS011;38827;53.024;6.596;2024-03-06T11:12:36;26.95;;;16.20;;
52962;SDS011;38827;53.024;6.596;2024-03-06T11:15:27;26.63;;;16.25;;
52962;SDS011;38827;53.024;6.596;2024-03-06T11:17:52;28.15;;;16.63;;
52962;SDS011;38827;53.024;6.596;2024-03-06T11:27:30;25.23;;;16.80;;
52962;SDS011;38827;53.024;6.596;2024-03-06T11:30:18;25.38;;;16.83;;
52962;SDS011;38827;53.024;6.596;2024-03-06T11:33:06;29.23;;;17.35;;
52962;SDS011;38827;53.024;6.596;2024-03-06T11:35:37;25.75;;;17.02;;
52962;SDS011;38827;53.024;6.596;2024-03-06T11:40:42;26.02;;;16.50;;
52962;SDS011;38827;53.024;6.596;2024-03-06T11:43:29;27.65;;;16.58;;
52962;SDS011;38827;53.024;6.596;2024-03-06T11:49:06;28.17;;;17.05;;
52962;SDS011;38827;53.024;6.596;2024-03-06T11:51:47;28.10;;;17.55;;
52962;SDS011;38827;53.024;6.596;2024-03-06T11:54:25;30.00;;;17.73;;
52962;SDS011;38827;53.024;6.596;2024-03-06T11:57:10;28.30;;;17.23;;
52962;SDS011;38827;53.024;6.596;2024-03-06T11:59:40;30.65;;;17.77;;
52962;SDS011;38827;53.024;6.596;2024-03-06T12:02:15;32.55;;;17.48;;
52962;SDS011;38827;53.024;6.596;2024-03-06T12:10:36;29.15;;;17.92;;
52962;SDS011;38827;53.024;6.596;2024-03-06T12:13:03;28.15;;;17.98;;
52962;SDS011;38827;53.024;6.596;2024-03-06T12:15:44;33.35;;;18.38;;
52962;SDS011;38827;53.024;6.596;2024-03-06T12:18:19;31.85;;;17.58;;
52962;SDS011;38827;53.024;6.596;2024-03-06T12:21:33;26.25;;;18.05;;
52962;SDS011;38827;53.024;6.596;2024-03-06T12:24:17;30.05;;;18.25;;
52962;SDS011;38827;53.024;6.596;2024-03-06T12:26:46;28.02;;;17.63;;
52962;SDS011;38827;53.024;6.596;2024-03-06T12:29:52;28.73;;;18.20;;
52962;SDS011;38827;53.024;6.596;2024-03-06T12:32:19;31.55;;;18.77;;
52962;SDS011;38827;53.024;6.596;2024-03-06T12:35:06;27.48;;;18.30;;
52962;SDS011;38827;53.024;6.596;2024-03-06T12:40:44;27.00;;;17.77;;
52962;SDS011;38827;53.024;6.596;2024-03-06T12:43:19;31.02;;;19.08;;
52962;SDS011;38827;53.024;6.596;2024-03-06T12:45:47;27.95;;;18.27;;
52962;SDS011;38827;53.024;6.596;2024-03-06T12:48:16;27.73;;;18.10;;
52962;SDS011;38827;53.024;6.596;2024-03-06T12:50:52;28.30;;;18.58;;
52962;SDS011;38827;53.024;6.596;2024-03-06T12:53:19;28.30;;;18.63;;
52962;SDS011;38827;53.024;6.596;2024-03-06T12:55:46;28.75;;;18.77;;
52962;SDS011;38827;53.024;6.596;2024-03-06T12:58:27;33.05;;;20.15;;
52962;SDS011;38827;53.024;6.596;2024-03-06T13:01:05;30.33;;;18.90;;
52962;SDS011;38827;53.024;6.596;2024-03-06T13:03:46;29.55;;;19.80;;
52962;SDS011;38827;53.024;6.596;2024-03-06T13:06:18;33.80;;;20.67;;
52962;SDS011;38827;53.024;6.596;2024-03-06T13:09:05;31.58;;;19.20;;
52962;SDS011;38827;53.024;6.596;2024-03-06T13:11:50;28.88;;;20.23;;
52962;SDS011;38827;53.024;6.596;2024-03-06T13:14:28;33.67;;;20.20;;
52962;SDS011;38827;53.024;6.596;2024-03-06T13:17:00;28.08;;;18.60;;
52962;SDS011;38827;53.024;6.596;2024-03-06T13:19:26;28.65;;;19.33;;
52962;SDS011;38827;53.024;6.596;2024-03-06T13:21:56;31.52;;;20.75;;
52962;SDS011;38827;53.024;6.596;2024-03-06T13:24:34;30.50;;;20.67;;
52962;SDS011;38827;53.024;6.596;2024-03-06T13:27:00;31.08;;;21.02;;
52962;SDS011;38827;53.024;6.596;2024-03-06T13:29:41;31.48;;;20.35;;
52962;SDS011;38827;53.024;6.596;2024-03-06T13:32:07;27.13;;;18.70;;
52962;SDS011;38827;53.024;6.596;2024-03-06T13:34:45;29.55;;;19.67;;
52962;SDS011;38827;53.024;6.596;2024-03-06T13:37:17;28.10;;;18.17;;
52962;SDS011;38827;53.024;6.596;2024-03-06T13:39:46;29.73;;;20.40;;
52962;SDS011;38827;53.024;6.596;2024-03-06T13:42:16;28.55;;;20.13;;
52962;SDS011;38827;53.024;6.596;2024-03-06T13:44:41;30.38;;;20.17;;
52962;SDS011;38827;53.024;6.596;2024-03-06T13:47:07;26.52;;;19.13;;
52962;SDS011;38827;53.024;6.596;2024-03-06T13:49:42;27.77;;;19.38;;
52962;SDS011;38827;53.024;6.596;2024-03-06T13:52:09;31.17;;;20.05;;
52962;SDS011;38827;53.024;6.596;2024-03-06T13:54:47;29.33;;;19.92;;
52962;SDS011;38827;53.024;6.596;2024-03-06T13:57:22;28.77;;;19.55;;
52962;SDS011;38827;53.024;6.596;2024-03-06T13:59:47;30.23;;;18.98;;
52962;SDS011;38827;53.024;6.596;2024-03-06T14:02:28;28.05;;;19.65;;
52962;SDS011;38827;53.024;6.596;2024-03-06T14:04:57;29.90;;;19.85;;
52962;SDS011;38827;53.024;6.596;2024-03-06T14:07:30;30.20;;;20.35;;
52962;SDS011;38827;53.024;6.596;2024-03-06T14:10:13;29.63;;;21.23;;
52962;SDS011;38827;53.024;6.596;2024-03-06T14:12:54;31.42;;;21.27;;
52962;SDS011;38827;53.024;6.596;2024-03-06T14:15:32;30.38;;;20.52;;
52962;SDS011;38827;53.024;6.596;2024-03-06T14:20:57;32.55;;;20.95;;
52962;SDS011;38827;53.024;6.596;2024-03-06T15:12:40;24.25;;;17.67;;
52962;SDS011;38827;53.024;6.596;2024-03-06T15:15:13;24.42;;;18.25;;
52962;SDS011;38827;53.024;6.596;2024-03-06T15:23:08;25.42;;;17.95;;
52962;SDS011;38827;53.024;6.596;2024-03-06T15:25:52;26.63;;;17.70;;
52962;SDS011;38827;53.024;6.596;2024-03-06T15:28:19;25.02;;;17.60;;
52962;SDS011;38827;53.024;6.596;2024-03-06T15:30:45;24.52;;;17.48;;
52962;SDS011;38827;53.024;6.596;2024-03-06T15:33:10;24.25;;;16.67;;
52962;SDS011;38827;53.024;6.596;2024-03-06T15:35:36;21.65;;;16.20;;
52962;SDS011;38827;53.024;6.596;2024-03-06T15:38:02;21.45;;;15.93;;
52962;SDS011;38827;53.024;6.596;2024-03-06T15:40:35;27.48;;;17.10;;
52962;SDS011;38827;53.024;6.596;2024-03-06T15:46:10;21.60;;;16.10;;
52962;SDS011;38827;53.024;6.596;2024-03-06T15:48:55;22.63;;;16.98;;
52962;SDS011;38827;53.024;6.596;2024-03-06T15:51:30;26.38;;;17.75;;
52962;SDS011;38827;53.024;6.596;2024-03-06T15:53:55;22.88;;;16.80;;
52962;SDS011;38827;53.024;6.596;2024-03-06T15:56:40;21.67;;;16.05;;
52962;SDS011;38827;53.024;6.596;2024-03-06T15:59:09;22.45;;;16.38;;
52962;SDS011;38827;53.024;6.596;2024-03-06T16:01:34;26.17;;;16.98;;
52962;SDS011;38827;53.024;6.596;2024-03-06T16:04:03;22.17;;;16.95;;
52962;SDS011;38827;53.024;6.596;2024-03-06T16:06:30;22.67;;;17.25;;
52962;SDS011;38827;53.024;6.596;2024-03-06T16:08:56;25.40;;;17.10;;
52962;SDS011;38827;53.024;6.596;2024-03-06T16:11:41;26.02;;;17.88;;
52962;SDS011;38827;53.024;6.596;2024-03-06T16:14:19;23.10;;;16.77;;
52962;SDS011;38827;53.024;6.596;2024-03-06T16:16:49;24.20;;;17.63;;
52962;SDS011;38827;53.024;6.596;2024-03-06T16:19:43;25.67;;;18.13;;
52962;SDS011;38827;53.024;6.596;2024-03-06T16:22:08;28.85;;;18.60;;
52962;SDS011;38827;53.024;6.596;2024-03-06T16:24:34;27.80;;;18.02;;
52962;SDS011;38827;53.024;6.596;2024-03-06T16:27:00;29.65;;;20.42;;
52962;SDS011;38827;53.024;6.596;2024-03-06T16:29:25;28.98;;;19.35;;
52962;SDS011;38827;53.024;6.596;2024-03-06T16:32:11;26.05;;;18.92;;
52962;SDS011;38827;53.024;6.596;2024-03-06T16:34:53;29.95;;;20.70;;
52962;SDS011;38827;53.024;6.596;2024-03-06T16:37:30;29.00;;;20.10;;
52962;SDS011;38827;53.024;6.596;2024-03-06T16:40:02;31.13;;;21.25;;
52962;SDS011;38827;53.024;6.596;2024-03-06T16:42:31;30.50;;;20.67;;
52962;SDS011;38827;53.024;6.596;2024-03-06T16:45:00;30.02;;;21.63;;
52962;SDS011;38827;53.024;6.596;2024-03-06T16:47:32;32.17;;;21.85;;
52962;SDS011;38827;53.024;6.596;2024-03-06T16:53:07;34.13;;;21.05;;
52962;SDS011;38827;53.024;6.596;2024-03-06T16:55:33;32.72;;;21.27;;
52962;SDS011;38827;53.024;6.596;2024-03-06T16:58:00;34.13;;;22.42;;